sensor_id;sensor_type;location;lat;lon;timestamp;temperature;humidity
21830;DHT22;11077;50.264;6.798;2023-01-15T00:01:22;5.80;99.90
21830;DHT22;11077;50.264;6.798;2023-01-15T00:03:50;5.70;99.90
21830;DHT22;11077;50.264;6.798;2023-01-15T00:06:20;5.60;99.90
21830;DHT22;11077;50.264;6.798;2023-01-15T00:08:48;5.60;99.90
21830;DHT22;11077;50.264;6.798;2023-01-15T00:11:16;5.50;99.90
21830;DHT22;11077;50.264;6.798;2023-01-15T00:13:45;5.50;99.90
21830;DHT22;11077;50.264;6.798;2023-01-15T00:16:14;5.40;99.90
21830;DHT22;11077;50.264;6.798;2023-01-15T00:18:48;5.30;99.90
21830;DHT22;11077;50.264;6.798;2023-01-15T00:21:18;5.20;99.90
21830;DHT22;11077;50.264;6.798;2023-01-15T00:23:47;5.10;99.90
21830;DHT22;11077;50.264;6.798;2023-01-15T00:26:33;5.00;99.90
21830;DHT22;11077;50.264;6.798;2023-01-15T00:29:18;5.00;99.90
21830;DHT22;11077;50.264;6.798;2023-01-15T00:31:52;4.90;99.90
21830;DHT22;11077;50.264;6.798;2023-01-15T00:34:20;4.90;99.90
21830;DHT22;11077;50.264;6.798;2023-01-15T00:36:48;4.90;99.90
21830;DHT22;11077;50.264;6.798;2023-01-15T00:39:16;4.80;99.90
21830;DHT22;11077;50.264;6.798;2023-01-15T00:41:45;4.80;99.90
21830;DHT22;11077;50.264;6.798;2023-01-15T00:44:12;4.80;99.90
21830;DHT22;11077;50.264;6.798;2023-01-15T00:46:40;4.80;99.90
21830;DHT22;11077;50.264;6.798;2023-01-15T00:49:08;4.70;99.90
21830;DHT22;11077;50.264;6.798;2023-01-15T00:51:35;4.60;99.90
21830;DHT22;11077;50.264;6.798;2023-01-15T00:54:05;4.60;99.90
21830;DHT22;11077;50.264;6.798;2023-01-15T00:56:32;4.50;99.90
21830;DHT22;11077;50.264;6.798;2023-01-15T00:59:01;4.40;99.90
21830;DHT22;11077;50.264;6.798;2023-01-15T01:01:29;4.40;99.90
21830;DHT22;11077;50.264;6.798;2023-01-15T01:03:56;4.30;99.90
21830;DHT22;11077;50.264;6.798;2023-01-15T01:06:26;4.30;99.90
21830;DHT22;11077;50.264;6.798;2023-01-15T01:08:54;4.20;99.90
21830;DHT22;11077;50.264;6.798;2023-01-15T01:11:24;4.20;99.90
21830;DHT22;11077;50.264;6.798;2023-01-15T01:14:00;4.20;99.90
21830;DHT22;11077;50.264;6.798;2023-01-15T01:16:32;4.20;99.90
21830;DHT22;11077;50.264;6.798;2023-01-15T01:19:02;4.20;99.90
21830;DHT22;11077;50.264;6.798;2023-01-15T01:21:30;4.10;99.90
21830;DHT22;11077;50.264;6.798;2023-01-15T01:23:58;4.10;99.90
21830;DHT22;11077;50.264;6.798;2023-01-15T01:26:28;4.10;99.90
21830;DHT22;11077;50.264;6.798;2023-01-15T01:28:56;4.10;99.90
21830;DHT22;11077;50.264;6.798;2023-01-15T01:31:24;4.00;99.90
21830;DHT22;11077;50.264;6.798;2023-01-15T01:33:54;4.00;99.90
21830;DHT22;11077;50.264;6.798;2023-01-15T01:36:28;4.00;99.90
21830;DHT22;11077;50.264;6.798;2023-01-15T01:38:57;4.00;99.90
21830;DHT22;11077;50.264;6.798;2023-01-15T01:41:29;3.90;99.90
21830;DHT22;11077;50.264;6.798;2023-01-15T01:43:59;3.90;99.90
21830;DHT22;11077;50.264;6.798;2023-01-15T01:46:31;3.90;99.90
21830;DHT22;11077;50.264;6.798;2023-01-15T01:49:02;3.90;99.90
21830;DHT22;11077;50.264;6.798;2023-01-15T01:51:33;3.80;99.90
21830;DHT22;11077;50.264;6.798;2023-01-15T01:54:02;3.80;99.90
21830;DHT22;11077;50.264;6.798;2023-01-15T01:56:33;3.80;99.90
21830;DHT22;11077;50.264;6.798;2023-01-15T01:59:02;3.80;99.90
21830;DHT22;11077;50.264;6.798;2023-01-15T02:01:30;3.80;99.90
21830;DHT22;11077;50.264;6.798;2023-01-15T02:03:58;3.70;99.90
21830;DHT22;11077;50.264;6.798;2023-01-15T02:06:26;3.80;99.90
21830;DHT22;11077;50.264;6.798;2023-01-15T02:08:56;3.70;99.90
21830;DHT22;11077;50.264;6.798;2023-01-15T02:11:24;3.80;99.90
21830;DHT22;11077;50.264;6.798;2023-01-15T02:13:59;3.70;99.90
21830;DHT22;11077;50.264;6.798;2023-01-15T02:16:36;3.70;99.90
21830;DHT22;11077;50.264;6.798;2023-01-15T02:19:16;3.70;99.90
21830;DHT22;11077;50.264;6.798;2023-01-15T02:21:55;3.60;99.90
21830;DHT22;11077;50.264;6.798;2023-01-15T02:24:31;3.60;99.90
21830;DHT22;11077;50.264;6.798;2023-01-15T02:27:11;3.60;99.90
21830;DHT22;11077;50.264;6.798;2023-01-15T02:29:52;3.60;99.90
21830;DHT22;11077;50.264;6.798;2023-01-15T02:32:27;3.50;99.90
21830;DHT22;11077;50.264;6.798;2023-01-15T02:35:00;3.50;99.90
21830;DHT22;11077;50.264;6.798;2023-01-15T02:37:33;3.50;99.90
21830;DHT22;11077;50.264;6.798;2023-01-15T02:40:06;3.40;99.90
21830;DHT22;11077;50.264;6.798;2023-01-15T02:42:39;3.40;99.90
21830;DHT22;11077;50.264;6.798;2023-01-15T02:45:08;3.20;99.90
21830;DHT22;11077;50.264;6.798;2023-01-15T02:47:41;3.20;99.90
21830;DHT22;11077;50.264;6.798;2023-01-15T02:50:14;3.20;99.90
21830;DHT22;11077;50.264;6.798;2023-01-15T02:52:47;3.20;99.90
21830;DHT22;11077;50.264;6.798;2023-01-15T02:55:21;3.10;99.90
21830;DHT22;11077;50.264;6.798;2023-01-15T02:57:54;3.10;99.90
21830;DHT22;11077;50.264;6.798;2023-01-15T03:00:25;3.10;99.90
21830;DHT22;11077;50.264;6.798;2023-01-15T03:02:57;3.00;99.90
21830;DHT22;11077;50.264;6.798;2023-01-15T03:05:29;2.90;99.90
21830;DHT22;11077;50.264;6.798;2023-01-15T03:07:59;2.90;99.90
21830;DHT22;11077;50.264;6.798;2023-01-15T03:10:37;2.80;99.90
21830;DHT22;11077;50.264;6.798;2023-01-15T03:13:14;2.80;99.90
21830;DHT22;11077;50.264;6.798;2023-01-15T03:15:55;2.80;99.90
21830;DHT22;11077;50.264;6.798;2023-01-15T03:18:49;2.80;99.90
21830;DHT22;11077;50.264;6.798;2023-01-15T03:21:21;2.70;99.90
21830;DHT22;11077;50.264;6.798;2023-01-15T03:23:53;2.70;99.90
21830;DHT22;11077;50.264;6.798;2023-01-15T03:26:26;2.60;99.90
21830;DHT22;11077;50.264;6.798;2023-01-15T03:28:56;2.60;99.90
21830;DHT22;11077;50.264;6.798;2023-01-15T03:31:24;2.50;99.90
21830;DHT22;11077;50.264;6.798;2023-01-15T03:33:53;2.50;99.90
21830;DHT22;11077;50.264;6.798;2023-01-15T03:36:22;2.50;99.90
21830;DHT22;11077;50.264;6.798;2023-01-15T03:38:50;2.50;99.90
21830;DHT22;11077;50.264;6.798;2023-01-15T03:41:47;2.60;99.90
21830;DHT22;11077;50.264;6.798;2023-01-15T03:44:25;2.60;99.90
21830;DHT22;11077;50.264;6.798;2023-01-15T03:47:03;2.60;99.90
21830;DHT22;11077;50.264;6.798;2023-01-15T03:49:42;2.60;99.90
21830;DHT22;11077;50.264;6.798;2023-01-15T03:52:29;2.50;99.90
21830;DHT22;11077;50.264;6.798;2023-01-15T03:55:07;2.60;99.90
21830;DHT22;11077;50.264;6.798;2023-01-15T03:57:40;2.60;99.90
21830;DHT22;11077;50.264;6.798;2023-01-15T04:00:13;2.60;99.90
21830;DHT22;11077;50.264;6.798;2023-01-15T04:02:43;2.60;99.90
21830;DHT22;11077;50.264;6.798;2023-01-15T04:05:14;2.60;99.90
21830;DHT22;11077;50.264;6.798;2023-01-15T04:07:47;2.50;99.90
21830;DHT22;11077;50.264;6.798;2023-01-15T04:10:16;2.50;99.90
21830;DHT22;11077;50.264;6.798;2023-01-15T04:12:45;2.50;99.90
21830;DHT22;11077;50.264;6.798;2023-01-15T04:15:15;2.50;99.90
21830;DHT22;11077;50.264;6.798;2023-01-15T04:17:43;2.40;99.90
21830;DHT22;11077;50.264;6.798;2023-01-15T04:20:11;2.30;99.90
21830;DHT22;11077;50.264;6.798;2023-01-15T04:22:41;2.30;99.90
21830;DHT22;11077;50.264;6.798;2023-01-15T04:25:09;2.30;99.90
21830;DHT22;11077;50.264;6.798;2023-01-15T04:27:37;2.20;99.90
21830;DHT22;11077;50.264;6.798;2023-01-15T04:30:08;2.20;99.90
21830;DHT22;11077;50.264;6.798;2023-01-15T04:32:37;2.10;99.90
21830;DHT22;11077;50.264;6.798;2023-01-15T04:35:05;2.10;99.90
21830;DHT22;11077;50.264;6.798;2023-01-15T04:37:32;2.00;99.90
21830;DHT22;11077;50.264;6.798;2023-01-15T04:39:59;2.00;99.90
21830;DHT22;11077;50.264;6.798;2023-01-15T04:42:27;2.00;99.90
21830;DHT22;11077;50.264;6.798;2023-01-15T04:45:12;2.00;99.90
21830;DHT22;11077;50.264;6.798;2023-01-15T04:47:40;2.00;99.90
21830;DHT22;11077;50.264;6.798;2023-01-15T04:50:09;2.00;99.90
21830;DHT22;11077;50.264;6.798;2023-01-15T04:52:37;2.00;99.90
21830;DHT22;11077;50.264;6.798;2023-01-15T04:55:05;2.00;99.90
21830;DHT22;11077;50.264;6.798;2023-01-15T04:57:32;2.00;99.90
21830;DHT22;11077;50.264;6.798;2023-01-15T05:00:02;1.90;99.90
21830;DHT22;11077;50.264;6.798;2023-01-15T05:02:29;2.00;99.90
21830;DHT22;11077;50.264;6.798;2023-01-15T05:04:57;2.00;99.90
21830;DHT22;11077;50.264;6.798;2023-01-15T05:07:26;2.00;99.90
21830;DHT22;11077;50.264;6.798;2023-01-15T05:09:54;2.00;99.90
21830;DHT22;11077;50.264;6.798;2023-01-15T05:12:21;2.00;99.90
21830;DHT22;11077;50.264;6.798;2023-01-15T05:14:48;2.00;99.90
21830;DHT22;11077;50.264;6.798;2023-01-15T05:17:16;1.90;99.90
21830;DHT22;11077;50.264;6.798;2023-01-15T05:19:43;2.00;99.90
21830;DHT22;11077;50.264;6.798;2023-01-15T05:22:12;2.00;99.90
21830;DHT22;11077;50.264;6.798;2023-01-15T05:24:39;1.90;99.90
21830;DHT22;11077;50.264;6.798;2023-01-15T05:27:07;1.90;99.90
21830;DHT22;11077;50.264;6.798;2023-01-15T05:29:34;2.00;99.90
21830;DHT22;11077;50.264;6.798;2023-01-15T05:32:02;1.90;99.90
21830;DHT22;11077;50.264;6.798;2023-01-15T05:34:29;2.00;99.90
21830;DHT22;11077;50.264;6.798;2023-01-15T05:36:57;2.00;99.90
21830;DHT22;11077;50.264;6.798;2023-01-15T05:39:26;2.00;99.90
21830;DHT22;11077;50.264;6.798;2023-01-15T05:41:53;2.00;99.90
21830;DHT22;11077;50.264;6.798;2023-01-15T05:44:23;2.00;99.90
21830;DHT22;11077;50.264;6.798;2023-01-15T05:46:51;2.00;99.90
21830;DHT22;11077;50.264;6.798;2023-01-15T05:49:21;2.00;99.90
21830;DHT22;11077;50.264;6.798;2023-01-15T05:51:49;2.00;99.90
21830;DHT22;11077;50.264;6.798;2023-01-15T05:54:18;2.00;99.90
21830;DHT22;11077;50.264;6.798;2023-01-15T05:56:47;2.00;99.90
21830;DHT22;11077;50.264;6.798;2023-01-15T05:59:16;2.10;99.90
21830;DHT22;11077;50.264;6.798;2023-01-15T06:01:43;2.10;99.90
21830;DHT22;11077;50.264;6.798;2023-01-15T06:04:11;2.10;99.90
21830;DHT22;11077;50.264;6.798;2023-01-15T06:06:40;2.10;99.90
21830;DHT22;11077;50.264;6.798;2023-01-15T06:09:08;2.10;99.90
21830;DHT22;11077;50.264;6.798;2023-01-15T06:11:35;2.10;99.90
21830;DHT22;11077;50.264;6.798;2023-01-15T06:14:03;2.10;99.90
21830;DHT22;11077;50.264;6.798;2023-01-15T06:16:31;2.10;99.90
21830;DHT22;11077;50.264;6.798;2023-01-15T06:18:59;2.00;99.90
21830;DHT22;11077;50.264;6.798;2023-01-15T06:21:29;2.10;99.90
21830;DHT22;11077;50.264;6.798;2023-01-15T06:23:56;2.10;99.90
21830;DHT22;11077;50.264;6.798;2023-01-15T06:26:24;2.10;99.90
21830;DHT22;11077;50.264;6.798;2023-01-15T06:28:52;2.10;99.90
21830;DHT22;11077;50.264;6.798;2023-01-15T06:31:22;2.10;99.90
21830;DHT22;11077;50.264;6.798;2023-01-15T06:33:51;2.00;99.90
21830;DHT22;11077;50.264;6.798;2023-01-15T06:36:20;2.10;99.90
21830;DHT22;11077;50.264;6.798;2023-01-15T06:38:48;2.10;99.90
21830;DHT22;11077;50.264;6.798;2023-01-15T06:41:18;2.10;99.90
21830;DHT22;11077;50.264;6.798;2023-01-15T06:44:02;2.10;99.90
21830;DHT22;11077;50.264;6.798;2023-01-15T06:46:49;2.10;99.90
21830;DHT22;11077;50.264;6.798;2023-01-15T06:49:35;2.20;99.90
21830;DHT22;11077;50.264;6.798;2023-01-15T06:52:04;2.20;99.90
21830;DHT22;11077;50.264;6.798;2023-01-15T06:54:35;2.20;99.90
21830;DHT22;11077;50.264;6.798;2023-01-15T06:57:02;2.20;99.90
21830;DHT22;11077;50.264;6.798;2023-01-15T06:59:30;2.20;99.90
21830;DHT22;11077;50.264;6.798;2023-01-15T07:01:59;2.20;99.90
21830;DHT22;11077;50.264;6.798;2023-01-15T07:04:27;2.30;99.90
21830;DHT22;11077;50.264;6.798;2023-01-15T07:06:55;2.20;99.90
21830;DHT22;11077;50.264;6.798;2023-01-15T07:09:22;2.30;99.90
21830;DHT22;11077;50.264;6.798;2023-01-15T07:11:50;2.30;99.90
21830;DHT22;11077;50.264;6.798;2023-01-15T07:14:19;2.30;99.90
21830;DHT22;11077;50.264;6.798;2023-01-15T07:16:47;2.30;99.90
21830;DHT22;11077;50.264;6.798;2023-01-15T07:19:16;2.30;99.90
21830;DHT22;11077;50.264;6.798;2023-01-15T07:21:43;2.30;99.90
21830;DHT22;11077;50.264;6.798;2023-01-15T07:24:11;2.30;99.90
21830;DHT22;11077;50.264;6.798;2023-01-15T07:26:39;2.30;99.90
21830;DHT22;11077;50.264;6.798;2023-01-15T07:29:07;2.40;99.90
21830;DHT22;11077;50.264;6.798;2023-01-15T07:31:34;2.40;99.90
21830;DHT22;11077;50.264;6.798;2023-01-15T07:34:02;2.40;99.90
21830;DHT22;11077;50.264;6.798;2023-01-15T07:36:31;2.30;99.90
21830;DHT22;11077;50.264;6.798;2023-01-15T07:38:59;2.40;99.90
21830;DHT22;11077;50.264;6.798;2023-01-15T07:41:26;2.30;99.90
21830;DHT22;11077;50.264;6.798;2023-01-15T07:44:12;2.30;99.90
21830;DHT22;11077;50.264;6.798;2023-01-15T07:46:56;2.20;99.90
21830;DHT22;11077;50.264;6.798;2023-01-15T07:49:42;2.20;99.90
21830;DHT22;11077;50.264;6.798;2023-01-15T07:52:16;2.00;99.90
21830;DHT22;11077;50.264;6.798;2023-01-15T07:54:44;1.90;99.90
21830;DHT22;11077;50.264;6.798;2023-01-15T07:57:17;1.90;99.90
21830;DHT22;11077;50.264;6.798;2023-01-15T07:59:48;1.90;99.90
21830;DHT22;11077;50.264;6.798;2023-01-15T08:02:22;1.90;99.90
21830;DHT22;11077;50.264;6.798;2023-01-15T08:04:52;1.90;99.90
21830;DHT22;11077;50.264;6.798;2023-01-15T08:07:25;1.80;99.90
21830;DHT22;11077;50.264;6.798;2023-01-15T08:09:53;1.90;99.90
21830;DHT22;11077;50.264;6.798;2023-01-15T08:12:22;1.80;99.90
21830;DHT22;11077;50.264;6.798;2023-01-15T08:15:08;1.80;99.90
21830;DHT22;11077;50.264;6.798;2023-01-15T08:17:50;1.80;99.90
21830;DHT22;11077;50.264;6.798;2023-01-15T08:20:21;1.80;99.90
21830;DHT22;11077;50.264;6.798;2023-01-15T08:22:51;1.80;99.90
21830;DHT22;11077;50.264;6.798;2023-01-15T08:25:25;1.80;99.90
21830;DHT22;11077;50.264;6.798;2023-01-15T08:27:59;1.70;99.90
21830;DHT22;11077;50.264;6.798;2023-01-15T08:30:29;1.70;99.90
21830;DHT22;11077;50.264;6.798;2023-01-15T08:32:58;1.80;99.90
21830;DHT22;11077;50.264;6.798;2023-01-15T08:35:32;1.80;99.90
21830;DHT22;11077;50.264;6.798;2023-01-15T08:38:07;1.80;99.90
21830;DHT22;11077;50.264;6.798;2023-01-15T08:40:38;1.80;99.90
21830;DHT22;11077;50.264;6.798;2023-01-15T08:43:37;1.80;99.90
21830;DHT22;11077;50.264;6.798;2023-01-15T08:46:12;1.80;99.90
21830;DHT22;11077;50.264;6.798;2023-01-15T08:48:53;1.80;99.90
21830;DHT22;11077;50.264;6.798;2023-01-15T08:51:21;1.80;99.90
21830;DHT22;11077;50.264;6.798;2023-01-15T08:53:51;1.90;99.90
21830;DHT22;11077;50.264;6.798;2023-01-15T08:56:19;1.80;99.90
21830;DHT22;11077;50.264;6.798;2023-01-15T08:58:56;1.90;99.90
21830;DHT22;11077;50.264;6.798;2023-01-15T09:01:26;1.90;99.90
21830;DHT22;11077;50.264;6.798;2023-01-15T09:03:53;1.90;99.90
21830;DHT22;11077;50.264;6.798;2023-01-15T09:06:23;1.80;99.90
21830;DHT22;11077;50.264;6.798;2023-01-15T09:08:58;1.90;99.90
21830;DHT22;11077;50.264;6.798;2023-01-15T09:11:25;1.90;99.90
21830;DHT22;11077;50.264;6.798;2023-01-15T09:13:53;1.90;99.90
21830;DHT22;11077;50.264;6.798;2023-01-15T09:16:21;1.90;99.90
21830;DHT22;11077;50.264;6.798;2023-01-15T09:18:59;1.90;99.90
21830;DHT22;11077;50.264;6.798;2023-01-15T09:21:29;1.90;99.90
21830;DHT22;11077;50.264;6.798;2023-01-15T09:24:11;2.00;99.90
21830;DHT22;11077;50.264;6.798;2023-01-15T09:26:39;2.00;99.90
21830;DHT22;11077;50.264;6.798;2023-01-15T09:29:07;2.00;99.90
21830;DHT22;11077;50.264;6.798;2023-01-15T09:31:41;2.00;99.90
21830;DHT22;11077;50.264;6.798;2023-01-15T09:34:09;2.00;99.90
21830;DHT22;11077;50.264;6.798;2023-01-15T09:36:38;2.10;99.90
21830;DHT22;11077;50.264;6.798;2023-01-15T09:39:09;2.10;99.90
21830;DHT22;11077;50.264;6.798;2023-01-15T09:42:04;2.20;99.90
21830;DHT22;11077;50.264;6.798;2023-01-15T09:44:54;2.20;99.90
21830;DHT22;11077;50.264;6.798;2023-01-15T09:47:33;2.20;99.90
21830;DHT22;11077;50.264;6.798;2023-01-15T09:50:20;2.20;99.90
21830;DHT22;11077;50.264;6.798;2023-01-15T09:56:25;2.20;99.90
21830;DHT22;11077;50.264;6.798;2023-01-15T09:58:56;2.30;99.90
21830;DHT22;11077;50.264;6.798;2023-01-15T10:01:26;2.40;99.90
21830;DHT22;11077;50.264;6.798;2023-01-15T10:04:00;2.40;99.90
21830;DHT22;11077;50.264;6.798;2023-01-15T10:06:34;2.40;99.90
21830;DHT22;11077;50.264;6.798;2023-01-15T10:09:14;2.50;99.90
21830;DHT22;11077;50.264;6.798;2023-01-15T10:11:57;2.50;99.90
21830;DHT22;11077;50.264;6.798;2023-01-15T10:14:51;2.50;99.90
21830;DHT22;11077;50.264;6.798;2023-01-15T10:17:28;2.50;99.90
21830;DHT22;11077;50.264;6.798;2023-01-15T10:20:25;2.50;99.90
21830;DHT22;11077;50.264;6.798;2023-01-15T10:23:08;2.60;99.90
21830;DHT22;11077;50.264;6.798;2023-01-15T10:25:47;2.60;99.90
21830;DHT22;11077;50.264;6.798;2023-01-15T10:28:25;2.50;99.90
21830;DHT22;11077;50.264;6.798;2023-01-15T10:30:56;2.60;99.90
21830;DHT22;11077;50.264;6.798;2023-01-15T10:33:48;2.60;99.90
21830;DHT22;11077;50.264;6.798;2023-01-15T10:36:24;2.60;99.90
21830;DHT22;11077;50.264;6.798;2023-01-15T10:39:01;2.60;99.90
21830;DHT22;11077;50.264;6.798;2023-01-15T10:41:45;2.60;99.90
21830;DHT22;11077;50.264;6.798;2023-01-15T10:44:23;2.60;99.90
21830;DHT22;11077;50.264;6.798;2023-01-15T10:47:00;2.60;99.90
21830;DHT22;11077;50.264;6.798;2023-01-15T10:49:39;2.70;99.90
21830;DHT22;11077;50.264;6.798;2023-01-15T10:52:26;2.70;99.90
21830;DHT22;11077;50.264;6.798;2023-01-15T10:55:01;2.70;99.90
21830;DHT22;11077;50.264;6.798;2023-01-15T10:57:42;2.80;99.90
21830;DHT22;11077;50.264;6.798;2023-01-15T11:00:13;2.80;99.90
21830;DHT22;11077;50.264;6.798;2023-01-15T11:02:43;2.80;99.90
21830;DHT22;11077;50.264;6.798;2023-01-15T11:05:15;2.90;99.90
21830;DHT22;11077;50.264;6.798;2023-01-15T11:07:46;2.90;99.90
21830;DHT22;11077;50.264;6.798;2023-01-15T11:10:19;2.90;99.90
21830;DHT22;11077;50.264;6.798;2023-01-15T11:12:51;2.90;99.90
21830;DHT22;11077;50.264;6.798;2023-01-15T11:15:44;2.90;99.90
21830;DHT22;11077;50.264;6.798;2023-01-15T11:18:34;3.00;99.90
21830;DHT22;11077;50.264;6.798;2023-01-15T11:21:30;3.00;99.90
21830;DHT22;11077;50.264;6.798;2023-01-15T11:24:00;3.10;99.90
21830;DHT22;11077;50.264;6.798;2023-01-15T11:26:31;3.10;99.90
21830;DHT22;11077;50.264;6.798;2023-01-15T11:29:13;3.10;99.90
21830;DHT22;11077;50.264;6.798;2023-01-15T11:31:43;3.10;99.90
21830;DHT22;11077;50.264;6.798;2023-01-15T11:34:19;3.10;99.90
21830;DHT22;11077;50.264;6.798;2023-01-15T11:37:00;3.20;99.90
21830;DHT22;11077;50.264;6.798;2023-01-15T11:39:28;3.10;99.90
21830;DHT22;11077;50.264;6.798;2023-01-15T11:42:01;3.20;99.90
21830;DHT22;11077;50.264;6.798;2023-01-15T11:44:53;3.20;99.90
21830;DHT22;11077;50.264;6.798;2023-01-15T11:47:49;3.10;99.90
21830;DHT22;11077;50.264;6.798;2023-01-15T11:50:34;3.10;99.90
21830;DHT22;11077;50.264;6.798;2023-01-15T11:53:15;3.10;99.90
21830;DHT22;11077;50.264;6.798;2023-01-15T11:56:00;3.10;99.90
21830;DHT22;11077;50.264;6.798;2023-01-15T11:58:40;3.10;99.90
21830;DHT22;11077;50.264;6.798;2023-01-15T12:01:19;3.10;99.90
21830;DHT22;11077;50.264;6.798;2023-01-15T12:03:50;3.10;99.90
21830;DHT22;11077;50.264;6.798;2023-01-15T12:06:21;3.20;99.90
21830;DHT22;11077;50.264;6.798;2023-01-15T12:08:50;3.30;99.90
21830;DHT22;11077;50.264;6.798;2023-01-15T12:11:47;3.30;99.90
21830;DHT22;11077;50.264;6.798;2023-01-15T12:14:42;3.40;99.90
21830;DHT22;11077;50.264;6.798;2023-01-15T12:17:28;3.40;99.90
21830;DHT22;11077;50.264;6.798;2023-01-15T12:20:23;3.60;99.90
21830;DHT22;11077;50.264;6.798;2023-01-15T12:23:06;3.60;99.90
21830;DHT22;11077;50.264;6.798;2023-01-15T12:25:48;3.60;99.90
21830;DHT22;11077;50.264;6.798;2023-01-15T12:28:26;3.60;99.90
21830;DHT22;11077;50.264;6.798;2023-01-15T12:31:00;3.60;99.90
21830;DHT22;11077;50.264;6.798;2023-01-15T12:33:36;3.50;99.90
21830;DHT22;11077;50.264;6.798;2023-01-15T12:36:18;3.50;99.90
21830;DHT22;11077;50.264;6.798;2023-01-15T12:38:53;3.50;99.90
21830;DHT22;11077;50.264;6.798;2023-01-15T12:41:25;3.50;99.90
21830;DHT22;11077;50.264;6.798;2023-01-15T12:44:20;3.60;99.90
21830;DHT22;11077;50.264;6.798;2023-01-15T12:47:15;3.60;99.90
21830;DHT22;11077;50.264;6.798;2023-01-15T12:49:48;3.70;99.90
21830;DHT22;11077;50.264;6.798;2023-01-15T12:52:25;3.60;99.90
21830;DHT22;11077;50.264;6.798;2023-01-15T12:55:08;3.60;99.90
21830;DHT22;11077;50.264;6.798;2023-01-15T12:57:43;3.70;99.90
21830;DHT22;11077;50.264;6.798;2023-01-15T13:00:16;3.60;99.90
21830;DHT22;11077;50.264;6.798;2023-01-15T13:03:04;3.60;99.90
21830;DHT22;11077;50.264;6.798;2023-01-15T13:05:42;3.60;99.90
21830;DHT22;11077;50.264;6.798;2023-01-15T13:08:19;3.60;99.90
21830;DHT22;11077;50.264;6.798;2023-01-15T13:10:49;3.60;99.90
21830;DHT22;11077;50.264;6.798;2023-01-15T13:13:20;3.60;99.90
21830;DHT22;11077;50.264;6.798;2023-01-15T13:16:08;3.60;99.90
21830;DHT22;11077;50.264;6.798;2023-01-15T13:18:51;3.50;99.90
21830;DHT22;11077;50.264;6.798;2023-01-15T13:21:23;3.50;99.90
21830;DHT22;11077;50.264;6.798;2023-01-15T13:24:12;3.50;99.90
21830;DHT22;11077;50.264;6.798;2023-01-15T13:26:59;3.50;99.90
21830;DHT22;11077;50.264;6.798;2023-01-15T13:29:39;3.50;99.90
21830;DHT22;11077;50.264;6.798;2023-01-15T13:32:23;3.40;99.90
21830;DHT22;11077;50.264;6.798;2023-01-15T13:35:00;3.40;99.90
21830;DHT22;11077;50.264;6.798;2023-01-15T13:37:36;3.50;99.90
21830;DHT22;11077;50.264;6.798;2023-01-15T13:40:22;3.50;99.90
21830;DHT22;11077;50.264;6.798;2023-01-15T13:42:51;3.50;99.90
21830;DHT22;11077;50.264;6.798;2023-01-15T13:45:33;3.50;99.90
21830;DHT22;11077;50.264;6.798;2023-01-15T13:48:15;3.50;99.90
21830;DHT22;11077;50.264;6.798;2023-01-15T13:50:54;3.60;99.90
21830;DHT22;11077;50.264;6.798;2023-01-15T13:53:27;3.60;99.90
21830;DHT22;11077;50.264;6.798;2023-01-15T13:55:59;3.60;99.90
21830;DHT22;11077;50.264;6.798;2023-01-15T13:58:36;3.60;99.90
21830;DHT22;11077;50.264;6.798;2023-01-15T14:01:22;3.60;99.90
21830;DHT22;11077;50.264;6.798;2023-01-15T14:04:05;3.50;99.90
21830;DHT22;11077;50.264;6.798;2023-01-15T14:06:36;3.60;99.90
21830;DHT22;11077;50.264;6.798;2023-01-15T14:09:04;3.60;99.90
21830;DHT22;11077;50.264;6.798;2023-01-15T14:11:37;3.60;99.90
21830;DHT22;11077;50.264;6.798;2023-01-15T14:17:20;3.60;99.90
21830;DHT22;11077;50.264;6.798;2023-01-15T14:20:14;3.60;99.90
21830;DHT22;11077;50.264;6.798;2023-01-15T14:22:57;3.60;99.90
21830;DHT22;11077;50.264;6.798;2023-01-15T14:25:43;3.60;99.90
21830;DHT22;11077;50.264;6.798;2023-01-15T14:28:33;3.60;99.90
21830;DHT22;11077;50.264;6.798;2023-01-15T14:31:18;3.50;99.90
21830;DHT22;11077;50.264;6.798;2023-01-15T14:34:02;3.50;99.90
21830;DHT22;11077;50.264;6.798;2023-01-15T14:36:38;3.40;99.90
21830;DHT22;11077;50.264;6.798;2023-01-15T14:39:29;3.40;99.90
21830;DHT22;11077;50.264;6.798;2023-01-15T14:42:07;3.40;99.90
21830;DHT22;11077;50.264;6.798;2023-01-15T14:45:07;3.40;99.90
21830;DHT22;11077;50.264;6.798;2023-01-15T14:47:44;3.40;99.90
21830;DHT22;11077;50.264;6.798;2023-01-15T14:50:23;3.40;99.90
21830;DHT22;11077;50.264;6.798;2023-01-15T14:53:01;3.40;99.90
21830;DHT22;11077;50.264;6.798;2023-01-15T14:55:30;3.40;99.90
21830;DHT22;11077;50.264;6.798;2023-01-15T14:58:03;3.40;99.90
21830;DHT22;11077;50.264;6.798;2023-01-15T15:00:43;3.40;99.90
21830;DHT22;11077;50.264;6.798;2023-01-15T15:03:16;3.40;99.90
21830;DHT22;11077;50.264;6.798;2023-01-15T15:05:48;3.40;99.90
21830;DHT22;11077;50.264;6.798;2023-01-15T15:08:20;3.40;99.90
21830;DHT22;11077;50.264;6.798;2023-01-15T15:10:54;3.30;99.90
21830;DHT22;11077;50.264;6.798;2023-01-15T15:13:30;3.30;99.90
21830;DHT22;11077;50.264;6.798;2023-01-15T15:16:05;3.30;99.90
21830;DHT22;11077;50.264;6.798;2023-01-15T15:18:43;3.20;99.90
21830;DHT22;11077;50.264;6.798;2023-01-15T15:21:18;3.20;99.90
21830;DHT22;11077;50.264;6.798;2023-01-15T15:23:55;3.20;99.90
21830;DHT22;11077;50.264;6.798;2023-01-15T15:26:44;3.20;99.90
21830;DHT22;11077;50.264;6.798;2023-01-15T15:29:13;3.10;99.90
21830;DHT22;11077;50.264;6.798;2023-01-15T15:31:52;3.10;99.90
21830;DHT22;11077;50.264;6.798;2023-01-15T15:34:29;3.10;99.90
21830;DHT22;11077;50.264;6.798;2023-01-15T15:37:02;3.10;99.90
21830;DHT22;11077;50.264;6.798;2023-01-15T15:39:39;3.10;99.90
21830;DHT22;11077;50.264;6.798;2023-01-15T15:42:17;3.20;99.90
21830;DHT22;11077;50.264;6.798;2023-01-15T15:45:11;3.20;99.90
21830;DHT22;11077;50.264;6.798;2023-01-15T15:48:10;3.20;99.90
21830;DHT22;11077;50.264;6.798;2023-01-15T15:50:58;3.20;99.90
21830;DHT22;11077;50.264;6.798;2023-01-15T15:53:27;3.20;99.90
21830;DHT22;11077;50.264;6.798;2023-01-15T15:56:00;3.10;99.90
21830;DHT22;11077;50.264;6.798;2023-01-15T15:58:34;3.20;99.90
21830;DHT22;11077;50.264;6.798;2023-01-15T16:01:02;3.10;99.90
21830;DHT22;11077;50.264;6.798;2023-01-15T16:03:45;3.10;99.90
21830;DHT22;11077;50.264;6.798;2023-01-15T16:06:19;3.10;99.90
21830;DHT22;11077;50.264;6.798;2023-01-15T16:08:52;3.10;99.90
21830;DHT22;11077;50.264;6.798;2023-01-15T16:11:22;3.10;99.90
21830;DHT22;11077;50.264;6.798;2023-01-15T16:13:52;3.10;99.90
21830;DHT22;11077;50.264;6.798;2023-01-15T16:16:20;3.10;99.90
21830;DHT22;11077;50.264;6.798;2023-01-15T16:18:52;3.10;99.90
21830;DHT22;11077;50.264;6.798;2023-01-15T16:21:25;3.10;99.90
21830;DHT22;11077;50.264;6.798;2023-01-15T16:23:57;3.00;99.90
21830;DHT22;11077;50.264;6.798;2023-01-15T16:26:31;3.00;99.90
21830;DHT22;11077;50.264;6.798;2023-01-15T16:29:02;2.90;99.90
21830;DHT22;11077;50.264;6.798;2023-01-15T16:31:34;2.90;99.90
21830;DHT22;11077;50.264;6.798;2023-01-15T16:34:03;2.90;99.90
21830;DHT22;11077;50.264;6.798;2023-01-15T16:36:38;2.90;99.90